Time;durP1;ratioP1;P1;durP2;ratioP2;P2;SDS_P1;SDS_P2;PMS_P1;PMS_P2;Temp;Humidity;BMP_temperature;BMP_pressure;BME280_temperature;BME280_humidity;BME280_pressure;Samples;Min_cycle;Max_cycle;Signal;HPM_P1;HPM_P2
2022/03/09 00:01:49;;;;;;;9.87;7.07;;;4.20;99.90;;;;;;5119773;28;20455;-56
2022/03/09 00:04:27;;;;;;;10.43;6.80;;;4.30;99.90;;;;;;5115147;28;20925;-52
2022/03/09 00:07:03;;;;;;;7.43;6.63;;;4.20;99.90;;;;;;5100769;28;20484;-57
2022/03/09 00:09:45;;;;;;;11.37;7.33;;;4.20;99.90;;;;;;5112765;28;20554;-56
2022/03/09 00:12:12;;;;;;;9.37;7.30;;;4.20;99.90;;;;;;5110955;28;20495;-52
2022/03/09 00:14:46;;;;;;;8.60;6.57;;;4.30;99.90;;;;;;5106906;28;20455;-55
2022/03/09 00:17:13;;;;;;;7.00;6.13;;;4.20;99.90;;;;;;5102510;28;20455;-54
2022/03/09 00:19:45;;;;;;;8.87;7.00;;;4.20;99.90;;;;;;5103558;28;20480;-55
2022/03/09 00:22:14;;;;;;;8.30;6.33;;;4.20;99.90;;;;;;5109123;28;20483;-57
2022/03/09 00:24:41;;;;;;;7.60;5.67;;;4.20;99.90;;;;;;5109453;28;20464;-52
2022/03/09 00:27:14;;;;;;;7.17;5.90;;;4.30;99.90;;;;;;5110792;28;20554;-52
2022/03/09 00:29:43;;;;;;;8.03;6.73;;;4.20;99.90;;;;;;5115921;28;20464;-52
2022/03/09 00:32:13;;;;;;;7.37;6.40;;;4.30;99.90;;;;;;5114270;28;20460;-53
2022/03/09 00:34:45;;;;;;;7.60;6.13;;;4.40;99.90;;;;;;5117862;28;20468;-53
2022/03/09 00:37:29;;;;;;;8.80;6.90;;;4.30;99.90;;;;;;5118807;28;20463;-55
2022/03/09 00:39:58;;;;;;;11.30;6.50;;;4.30;99.90;;;;;;5117926;28;20479;-52
2022/03/09 00:42:25;;;;;;;7.53;6.60;;;4.30;99.90;;;;;;5119216;28;20460;-54
2022/03/09 00:44:52;;;;;;;8.03;6.17;;;4.40;99.90;;;;;;5103632;28;20933;-55
2022/03/09 00:47:22;;;;;;;8.93;6.40;;;4.40;99.90;;;;;;5098423;28;20461;-53
2022/03/09 00:49:56;;;;;;;7.53;6.50;;;4.40;99.90;;;;;;5098613;28;20472;-55
2022/03/09 00:52:30;;;;;;;8.00;5.63;;;4.30;99.90;;;;;;5115097;28;20488;-58
2022/03/09 00:54:58;;;;;;;7.20;5.60;;;4.40;99.90;;;;;;5118588;28;20499;-55
2022/03/09 00:57:26;;;;;;;8.07;5.73;;;4.40;99.90;;;;;;5100293;28;20461;-58
2022/03/09 00:59:56;;;;;;;6.83;6.00;;;4.50;99.90;;;;;;5099149;28;20460;-58
2022/03/09 01:02:26;;;;;;;7.57;5.73;;;4.50;99.90;;;;;;5119355;28;20889;-58
2022/03/09 01:04:57;;;;;;;7.07;5.50;;;4.50;99.90;;;;;;5120658;28;20512;-57
2022/03/09 01:07:24;;;;;;;9.03;6.33;;;4.50;99.90;;;;;;5100765;28;20787;-55
2022/03/09 01:09:53;;;;;;;6.70;5.93;;;4.40;99.90;;;;;;5100143;28;20533;-56
2022/03/09 01:12:22;;;;;;;6.97;6.27;;;4.40;99.90;;;;;;5118915;28;20776;-58
2022/03/09 01:14:56;;;;;;;6.80;5.67;;;4.50;99.90;;;;;;5117622;28;20456;-58
2022/03/09 01:17:23;;;;;;;7.80;5.53;;;4.50;99.90;;;;;;5103771;28;20579;-52
2022/03/09 01:19:53;;;;;;;7.60;6.00;;;4.40;99.90;;;;;;5119816;28;20479;-54
2022/03/09 01:22:22;;;;;;;9.60;6.07;;;4.30;99.90;;;;;;5120603;28;20509;-57
2022/03/09 01:24:54;;;;;;;8.70;6.30;;;4.20;99.90;;;;;;5120815;28;20494;-54
2022/03/09 01:27:23;;;;;;;9.10;6.00;;;4.20;99.90;;;;;;5118811;28;20487;-58
2022/03/09 01:29:51;;;;;;;6.27;5.33;;;4.30;99.90;;;;;;5120920;28;20516;-57
2022/03/09 01:32:24;;;;;;;7.50;5.53;;;4.30;99.90;;;;;;5115547;28;20464;-53
2022/03/09 01:34:59;;;;;;;6.87;6.10;;;4.20;99.90;;;;;;5098105;28;20452;-55
2022/03/09 01:37:28;;;;;;;7.90;6.50;;;4.20;99.90;;;;;;5097907;28;20498;-53
2022/03/09 01:39:56;;;;;;;10.70;5.50;;;4.10;99.90;;;;;;5102306;28;20521;-56
2022/03/09 01:42:28;;;;;;;6.60;5.63;;;4.00;99.90;;;;;;5113019;28;20460;-54
2022/03/09 01:45:03;;;;;;;7.00;6.07;;;4.00;99.90;;;;;;5097733;28;20498;-52
2022/03/09 01:47:39;;;;;;;7.53;5.87;;;4.10;99.90;;;;;;5097215;28;20464;-55
2022/03/09 01:50:13;;;;;;;8.80;6.13;;;4.10;99.90;;;;;;5097462;28;20767;-52
2022/03/09 01:52:42;;;;;;;10.90;6.57;;;4.10;99.90;;;;;;5104418;28;20467;-53
2022/03/09 01:55:10;;;;;;;8.07;6.23;;;4.00;99.90;;;;;;5117548;28;20463;-56
2022/03/09 01:57:44;;;;;;;7.87;5.63;;;4.10;99.90;;;;;;5117981;28;20444;-56
2022/03/09 02:00:17;;;;;;;7.90;6.77;;;4.10;99.90;;;;;;5117318;28;20499;-56
2022/03/09 02:02:44;;;;;;;10.03;6.23;;;4.00;99.90;;;;;;5117562;28;20471;-57
2022/03/09 02:05:14;;;;;;;6.90;6.10;;;4.10;99.90;;;;;;5105140;28;20478;-50
2022/03/09 02:10:29;;;;;;;7.03;6.17;;;4.10;99.90;;;;;;5112444;28;20450;-52
2022/03/09 02:12:59;;;;;;;7.60;5.47;;;4.20;99.90;;;;;;5109553;28;20956;-54
2022/03/09 02:15:27;;;;;;;8.90;5.90;;;4.20;99.90;;;;;;5116894;28;20512;-52
2022/03/09 02:17:55;;;;;;;8.57;5.70;;;4.10;99.90;;;;;;5109779;28;20456;-51
2022/03/09 02:20:25;;;;;;;5.87;5.27;;;4.10;99.90;;;;;;5062156;28;20461;-52
2022/03/09 02:22:58;;;;;;;8.07;6.43;;;4.10;99.90;;;;;;5056998;28;20466;-56
2022/03/09 02:25:32;;;;;;;6.07;5.23;;;4.10;99.90;;;;;;5056434;28;20466;-54
2022/03/09 02:28:02;;;;;;;7.67;5.60;;;4.00;99.90;;;;;;5069456;28;20560;-52
2022/03/09 02:30:32;;;;;;;7.47;6.67;;;3.90;99.90;;;;;;5070691;28;20465;-53
2022/03/09 02:32:59;;;;;;;9.00;6.90;;;3.90;99.90;;;;;;5076887;28;20523;-52
2022/03/09 02:35:29;;;;;;;6.70;5.30;;;3.80;99.90;;;;;;5076184;28;20522;-58
2022/03/09 02:37:58;;;;;;;6.43;5.80;;;3.80;99.90;;;;;;5056865;28;20508;-56
2022/03/09 02:40:25;;;;;;;6.40;5.70;;;3.80;99.90;;;;;;5056801;28;20462;-58
2022/03/09 02:42:55;;;;;;;6.37;5.77;;;3.80;99.90;;;;;;5057092;28;20784;-55
2022/03/09 02:45:28;;;;;;;7.67;5.70;;;3.80;99.90;;;;;;5073551;28;20462;-56
2022/03/09 02:47:56;;;;;;;9.20;6.00;;;3.80;99.90;;;;;;5076729;28;20555;-56
2022/03/09 02:50:28;;;;;;;9.40;6.37;;;3.60;99.90;;;;;;5076698;28;20564;-52
2022/03/09 02:52:59;;;;;;;8.33;5.97;;;3.50;99.90;;;;;;5058562;28;20506;-52
2022/03/09 02:55:27;;;;;;;6.93;6.20;;;3.40;99.90;;;;;;5059468;28;20480;-55
2022/03/09 02:57:57;;;;;;;7.53;5.33;;;3.40;99.90;;;;;;5076708;28;20734;-54
2022/03/09 03:00:24;;;;;;;7.87;5.70;;;3.40;99.90;;;;;;5076784;28;21240;-51
2022/03/09 03:02:51;;;;;;;8.00;6.93;;;3.30;99.90;;;;;;5079306;28;20473;-55
2022/03/09 03:05:21;;;;;;;8.47;6.67;;;3.20;99.90;;;;;;5077150;28;20551;-53
2022/03/09 03:07:57;;;;;;;7.90;6.90;;;3.10;99.90;;;;;;5061819;28;20519;-55
2022/03/09 03:10:27;;;;;;;8.10;5.77;;;3.00;99.90;;;;;;5060489;28;20910;-58
2022/03/09 03:12:54;;;;;;;14.43;6.80;;;2.80;99.90;;;;;;5067176;28;20518;-54
2022/03/09 03:15:28;;;;;;;7.80;5.83;;;2.90;99.90;;;;;;5079362;28;20456;-54
2022/03/09 03:17:57;;;;;;;8.17;6.87;;;2.90;99.90;;;;;;5065138;28;20466;-56
2022/03/09 03:20:27;;;;;;;5.97;5.37;;;3.00;99.90;;;;;;5079440;28;20505;-51
2022/03/09 03:22:54;;;;;;;10.27;5.93;;;3.00;99.90;;;;;;5079202;28;20886;-54
2022/03/09 03:25:25;;;;;;;7.87;5.73;;;2.90;99.90;;;;;;5079764;28;20923;-50
2022/03/09 03:27:56;;;;;;;7.27;5.60;;;2.90;99.90;;;;;;5072048;28;20472;-56
2022/03/09 03:30:26;;;;;;;6.63;5.93;;;2.90;99.90;;;;;;5063677;28;20470;-54
2022/03/09 03:32:54;;;;;;;8.00;5.50;;;2.90;99.90;;;;;;5074030;28;22135;-56
2022/03/09 03:35:21;;;;;;;11.43;6.67;;;2.80;99.90;;;;;;5071080;28;20460;-56
2022/03/09 03:37:48;;;;;;;8.17;6.00;;;2.70;99.90;;;;;;5081751;28;20499;-57
2022/03/09 03:40:15;;;;;;;6.97;5.73;;;2.70;99.90;;;;;;5074017;28;20912;-55
2022/03/09 03:42:42;;;;;;;6.90;5.97;;;2.60;99.90;;;;;;5062016;28;20465;-55
2022/03/09 03:45:15;;;;;;;6.30;5.33;;;2.60;99.90;;;;;;5061055;28;20493;-52
2022/03/09 03:47:42;;;;;;;6.70;5.97;;;2.60;99.90;;;;;;5061513;28;20462;-52
2022/03/09 03:50:09;;;;;;;8.10;6.43;;;2.50;99.90;;;;;;5069770;28;20469;-58
2022/03/09 03:52:41;;;;;;;7.10;5.90;;;2.50;99.90;;;;;;5080925;28;20461;-56
2022/03/09 03:55:09;;;;;;;10.10;6.27;;;2.40;99.90;;;;;;5079865;28;20461;-58
2022/03/09 03:57:36;;;;;;;8.40;6.17;;;2.30;99.90;;;;;;5080506;28;20502;-58
2022/03/09 04:00:07;;;;;;;7.43;5.50;;;2.30;99.90;;;;;;5072026;28;20936;-58
2022/03/09 04:02:38;;;;;;;7.90;6.20;;;2.20;99.90;;;;;;5061719;28;20472;-58
2022/03/09 04:05:06;;;;;;;6.60;5.77;;;2.10;99.90;;;;;;5060939;28;20493;-58
2022/03/09 04:07:33;;;;;;;8.83;6.60;;;2.10;99.90;;;;;;5062610;28;20462;-57
2022/03/09 04:10:03;;;;;;;9.37;6.60;;;2.00;99.90;;;;;;5075224;28;20464;-55
2022/03/09 04:12:31;;;;;;;7.70;5.37;;;1.90;99.90;;;;;;5079908;28;20472;-56
2022/03/09 04:14:58;;;;;;;7.90;6.17;;;1.70;99.90;;;;;;5072523;28;20466;-51
2022/03/09 04:17:26;;;;;;;7.50;6.00;;;1.70;99.90;;;;;;5080244;28;20522;-57
2022/03/09 04:19:55;;;;;;;7.43;6.37;;;1.80;99.90;;;;;;5109067;28;20495;-56
2022/03/09 04:22:22;;;;;;;10.50;6.40;;;1.70;99.90;;;;;;5122049;28;20466;-54
2022/03/09 04:24:52;;;;;;;8.97;6.70;;;1.70;99.90;;;;;;5110515;28;20498;-58
2022/03/09 04:27:19;;;;;;;10.10;6.47;;;1.60;99.90;;;;;;5104410;28;20468;-57
2022/03/09 04:29:53;;;;;;;7.77;6.10;;;1.60;99.90;;;;;;5112857;28;20466;-56
2022/03/09 04:32:20;;;;;;;9.07;6.77;;;1.60;99.90;;;;;;5109897;28;20524;-57
2022/03/09 04:34:50;;;;;;;9.13;6.40;;;1.60;99.90;;;;;;5101555;28;20460;-57
2022/03/09 04:37:19;;;;;;;9.97;7.00;;;1.50;99.90;;;;;;5113008;28;20478;-55
2022/03/09 04:39:46;;;;;;;8.13;6.07;;;1.50;99.90;;;;;;5109838;28;20471;-57
2022/03/09 04:42:23;;;;;;;10.97;6.33;;;1.50;99.90;;;;;;5121656;28;20463;-59
2022/03/09 04:44:52;;;;;;;10.30;6.30;;;1.50;99.90;;;;;;5107413;28;20512;-58
2022/03/09 04:47:22;;;;;;;12.53;6.20;;;1.50;99.90;;;;;;5100404;28;20474;-58
2022/03/09 04:49:55;;;;;;;11.87;6.60;;;1.50;99.90;;;;;;5115092;28;20468;-57
2022/03/09 04:52:25;;;;;;;15.63;6.50;;;1.40;99.90;;;;;;5104607;28;20468;-58
2022/03/09 04:54:53;;;;;;;8.63;6.47;;;1.30;99.90;;;;;;5100735;28;20460;-58
2022/03/09 04:57:23;;;;;;;6.80;5.50;;;1.20;99.90;;;;;;5100514;28;21172;-58
2022/03/09 04:59:50;;;;;;;9.17;6.77;;;1.10;99.90;;;;;;5117774;28;20464;-58
2022/03/09 05:02:17;;;;;;;8.03;5.93;;;1.10;99.90;;;;;;5120446;28;20464;-58
2022/03/09 05:04:44;;;;;;;7.37;5.97;;;1.10;99.90;;;;;;5104012;28;20559;-58
2022/03/09 05:07:11;;;;;;;13.60;6.17;;;1.00;99.90;;;;;;5100376;28;20548;-55
2022/03/09 05:09:44;;;;;;;8.63;6.33;;;1.10;99.90;;;;;;5118634;28;20468;-58
2022/03/09 05:12:12;;;;;;;7.60;6.10;;;1.10;99.90;;;;;;5119711;28;20462;-55
2022/03/09 05:14:42;;;;;;;8.20;5.50;;;1.20;99.90;;;;;;5113024;28;20887;-57
2022/03/09 05:17:16;;;;;;;7.10;5.73;;;1.20;99.90;;;;;;5113704;28;20458;-56
2022/03/09 05:19:51;;;;;;;10.20;6.70;;;1.30;99.90;;;;;;5105447;28;20479;-58
2022/03/09 05:22:18;;;;;;;9.53;6.40;;;1.30;99.90;;;;;;5119686;28;20457;-58
2022/03/09 05:24:46;;;;;;;9.37;6.97;;;1.40;99.90;;;;;;5097437;28;20798;-51
2022/03/09 05:27:15;;;;;;;13.60;7.00;;;1.30;99.90;;;;;;5097998;28;20460;-57
2022/03/09 05:29:51;;;;;;;8.27;5.87;;;1.20;99.90;;;;;;5100144;28;20543;-55
2022/03/09 05:32:21;;;;;;;9.13;6.60;;;1.10;99.90;;;;;;5114116;28;20475;-59
2022/03/09 05:34:52;;;;;;;8.37;6.43;;;1.10;99.90;;;;;;5115144;28;20467;-56
2022/03/09 05:37:22;;;;;;;10.00;7.03;;;1.00;99.90;;;;;;5114628;28;20460;-55
2022/03/09 05:39:55;;;;;;;9.80;6.80;;;1.00;99.90;;;;;;5107777;28;20463;-53
2022/03/09 05:42:22;;;;;;;10.60;7.30;;;1.00;99.90;;;;;;5118020;28;20464;-57
2022/03/09 05:44:49;;;;;;;9.83;6.70;;;0.90;99.90;;;;;;5117768;28;20495;-58
2022/03/09 05:47:16;;;;;;;7.17;6.00;;;0.80;99.90;;;;;;5117908;28;20469;-55
2022/03/09 05:49:43;;;;;;;10.20;6.87;;;0.70;99.90;;;;;;5113097;28;20469;-53
2022/03/09 05:52:10;;;;;;;10.87;7.30;;;0.60;99.90;;;;;;5108919;28;20952;-54
2022/03/09 05:54:37;;;;;;;7.80;6.50;;;0.50;99.90;;;;;;5113510;28;20469;-55
2022/03/09 05:57:08;;;;;;;8.40;6.63;;;0.50;99.90;;;;;;5104340;28;20457;-56
2022/03/09 05:59:38;;;;;;;11.70;7.50;;;0.50;99.90;;;;;;5107169;28;20458;-57
2022/03/09 06:02:05;;;;;;;11.70;8.23;;;0.50;99.90;;;;;;5106906;28;20462;-57
2022/03/09 06:04:35;;;;;;;9.00;7.07;;;0.50;99.90;;;;;;5104716;28;20926;-58
2022/03/09 06:07:06;;;;;;;10.40;7.00;;;0.60;99.90;;;;;;5111028;28;21351;-56
2022/03/09 06:09:33;;;;;;;9.57;7.90;;;0.60;99.90;;;;;;5117516;28;20467;-58
2022/03/09 06:12:03;;;;;;;10.13;6.83;;;0.60;99.90;;;;;;5116658;28;20509;-58
2022/03/09 06:14:31;;;;;;;6.53;5.67;;;0.60;99.90;;;;;;5111438;28;20457;-58
2022/03/09 06:16:58;;;;;;;11.20;6.80;;;0.60;99.90;;;;;;5108537;28;20964;-57
2022/03/09 06:19:28;;;;;;;11.57;7.53;;;0.60;99.90;;;;;;5109516;28;20794;-56
2022/03/09 06:22:01;;;;;;;11.33;7.60;;;0.80;99.90;;;;;;5106841;28;20794;-58
2022/03/09 06:24:28;;;;;;;7.60;6.70;;;0.80;99.90;;;;;;5104459;28;20484;-57
2022/03/09 06:26:58;;;;;;;10.13;6.60;;;0.90;99.90;;;;;;5104606;28;20476;-55
2022/03/09 06:29:27;;;;;;;11.90;7.33;;;1.00;99.90;;;;;;5098865;28;20745;-54
2022/03/09 06:32:00;;;;;;;7.57;6.60;;;1.00;99.90;;;;;;5096252;28;20467;-56
2022/03/09 06:34:40;;;;;;;8.87;6.93;;;1.00;99.90;;;;;;5096536;28;20762;-59
2022/03/09 06:37:16;;;;;;;13.03;6.50;;;1.20;99.90;;;;;;5108725;28;20498;-58
2022/03/09 06:39:46;;;;;;;10.87;6.70;;;1.40;99.90;;;;;;5115251;28;20465;-60
2022/03/09 06:42:13;;;;;;;10.77;7.30;;;1.40;99.90;;;;;;5118276;28;20456;-59
2022/03/09 06:44:45;;;;;;;11.77;6.13;;;1.50;99.90;;;;;;5113656;28;20584;-60
2022/03/09 06:47:20;;;;;;;14.77;11.40;;;1.50;99.90;;;;;;5106988;28;20878;-60
2022/03/09 06:49:50;;;;;;;12.80;9.00;;;1.50;99.90;;;;;;5117169;28;20932;-60
2022/03/09 06:52:17;;;;;;;11.47;7.80;;;1.50;99.90;;;;;;5101773;28;20456;-60
2022/03/09 06:54:44;;;;;;;12.10;8.43;;;1.60;99.90;;;;;;5100464;28;20453;-59
2022/03/09 06:57:16;;;;;;;10.67;7.13;;;1.70;99.90;;;;;;5100627;28;20467;-55
2022/03/09 06:59:46;;;;;;;10.30;7.07;;;1.90;99.90;;;;;;5113141;28;20462;-57
2022/03/09 07:02:16;;;;;;;14.43;9.77;;;2.00;99.90;;;;;;5117807;28;20738;-61
2022/03/09 07:04:43;;;;;;;15.10;8.63;;;2.10;99.90;;;;;;5114781;28;20467;-57
2022/03/09 07:07:14;;;;;;;9.83;8.10;;;2.40;99.90;;;;;;5106699;28;20456;-57
2022/03/09 07:09:41;;;;;;;9.90;7.53;;;2.70;99.90;;;;;;5099240;28;20529;-58
2022/03/09 07:12:09;;;;;;;11.50;7.63;;;3.10;99.90;;;;;;5113296;28;20466;-60
2022/03/09 07:14:39;;;;;;;8.97;7.33;;;3.40;99.90;;;;;;5106598;28;20533;-60
2022/03/09 07:17:12;;;;;;;10.47;7.30;;;3.80;99.90;;;;;;5100476;28;20460;-60
2022/03/09 07:19:42;;;;;;;7.50;6.33;;;4.10;99.90;;;;;;5103759;28;20495;-59
2022/03/09 07:22:09;;;;;;;8.60;7.40;;;4.30;99.90;;;;;;5114140;28;20456;-58
2022/03/09 07:24:40;;;;;;;8.37;7.10;;;4.60;99.90;;;;;;5115807;28;20459;-59
2022/03/09 07:27:08;;;;;;;7.07;6.37;;;4.90;99.90;;;;;;5112202;28;20458;-59
2022/03/09 07:29:35;;;;;;;8.63;7.37;;;5.10;99.90;;;;;;5110737;28;20459;-61
2022/03/09 07:32:05;;;;;;;9.97;7.33;;;5.30;99.90;;;;;;5119742;28;20831;-60
2022/03/09 07:34:35;;;;;;;7.43;6.60;;;5.50;99.90;;;;;;5108190;28;20558;-60
2022/03/09 07:37:04;;;;;;;9.43;6.90;;;5.70;99.90;;;;;;5116057;28;20520;-60
2022/03/09 07:39:34;;;;;;;7.40;6.70;;;5.80;99.90;;;;;;5115210;28;20468;-61
2022/03/09 07:42:09;;;;;;;7.47;6.73;;;6.00;99.90;;;;;;5102096;28;20471;-61
2022/03/09 07:44:46;;;;;;;10.07;7.10;;;6.20;99.90;;;;;;5100886;28;20459;-61
2022/03/09 07:47:13;;;;;;;8.60;7.03;;;6.40;99.90;;;;;;5118067;28;20455;-60
2022/03/09 07:49:44;;;;;;;8.00;7.07;;;6.60;99.90;;;;;;5115476;28;20752;-60
2022/03/09 07:52:14;;;;;;;13.23;8.50;;;6.70;99.90;;;;;;5119467;28;20766;-59
2022/03/09 07:54:41;;;;;;;26.17;7.23;;;6.80;99.90;;;;;;5108729;28;20770;-60
2022/03/09 07:57:08;;;;;;;9.77;7.83;;;7.00;99.90;;;;;;5111031;28;20530;-60
2022/03/09 07:59:35;;;;;;;10.87;7.40;;;7.00;99.90;;;;;;5099279;28;20941;-60
2022/03/09 08:02:02;;;;;;;9.70;8.07;;;7.20;99.90;;;;;;5110141;28;20469;-59
2022/03/09 08:04:29;;;;;;;10.80;7.83;;;7.20;99.90;;;;;;5108480;28;20463;-57
2022/03/09 08:06:58;;;;;;;8.87;7.97;;;7.50;99.90;;;;;;5103036;28;20810;-59
2022/03/09 08:09:31;;;;;;;10.00;7.90;;;7.70;99.90;;;;;;5119485;28;20456;-55
2022/03/09 08:11:57;;;;;;;8.90;7.33;;;7.80;99.90;;;;;;5112082;28;20506;-56
2022/03/09 08:14:27;;;;;;;14.83;10.07;;;8.20;99.90;;;;;;5109302;28;20455;-57
2022/03/09 08:17:04;;;;;;;8.23;7.40;;;8.30;99.90;;;;;;5102137;28;20565;-60
2022/03/09 08:19:39;;;;;;;10.60;8.80;;;8.30;99.90;;;;;;5113737;28;20483;-56
2022/03/09 08:22:07;;;;;;;12.50;8.70;;;8.60;99.90;;;;;;5098566;28;20461;-56
2022/03/09 08:24:39;;;;;;;8.97;8.03;;;8.80;99.90;;;;;;5099415;28;20456;-56
2022/03/09 08:27:08;;;;;;;11.67;8.20;;;8.90;99.90;;;;;;5117682;28;20463;-55
2022/03/09 08:29:36;;;;;;;8.37;7.30;;;9.20;99.90;;;;;;5097771;28;20498;-60
2022/03/09 08:32:10;;;;;;;11.40;9.33;;;9.30;99.90;;;;;;5098327;28;20737;-60
2022/03/09 08:34:46;;;;;;;14.27;10.10;;;9.50;99.90;;;;;;5100913;28;20907;-58
2022/03/09 08:37:13;;;;;;;9.30;7.40;;;9.70;99.90;;;;;;5118660;28;20460;-56
2022/03/09 08:39:43;;;;;;;9.47;8.00;;;9.80;99.90;;;;;;5114803;28;20493;-56
2022/03/09 08:42:11;;;;;;;9.77;7.80;;;10.00;99.90;;;;;;5099146;28;20456;-57
2022/03/09 08:44:38;;;;;;;9.90;8.90;;;10.10;99.90;;;;;;5098638;28;20461;-60
2022/03/09 08:47:11;;;;;;;9.70;8.13;;;10.40;99.90;;;;;;5102863;28;20779;-58
2022/03/09 08:49:49;;;;;;;11.63;7.83;;;10.70;99.90;;;;;;5113311;28;20467;-60
2022/03/09 08:52:16;;;;;;;11.20;9.33;;;10.90;99.90;;;;;;5099155;28;20513;-57
2022/03/09 08:54:54;;;;;;;9.90;7.70;;;10.70;99.90;;;;;;5105844;28;20463;-59
2022/03/09 08:57:24;;;;;;;13.10;8.23;;;10.70;99.90;;;;;;5118995;28;20516;-60
2022/03/09 09:00:03;;;;;;;9.23;8.17;;;10.70;99.90;;;;;;5107556;28;20468;-60
2022/03/09 09:02:37;;;;;;;8.60;7.70;;;11.00;99.90;;;;;;5099454;28;20460;-60
2022/03/09 09:05:05;;;;;;;9.10;8.03;;;10.80;99.90;;;;;;5098399;28;20470;-60
2022/03/09 09:07:35;;;;;;;8.90;8.00;;;10.60;99.90;;;;;;5112275;28;20470;-60
2022/03/09 09:10:14;;;;;;;9.13;7.77;;;10.40;99.90;;;;;;5106165;28;20469;-60
2022/03/09 09:12:57;;;;;;;9.63;7.87;;;10.50;99.90;;;;;;5099102;28;20554;-60
2022/03/09 09:15:30;;;;;;;12.50;8.37;;;10.50;99.90;;;;;;5097782;28;20490;-60
2022/03/09 09:18:00;;;;;;;13.93;9.03;;;10.70;99.90;;;;;;5115432;28;20894;-60
2022/03/09 09:20:30;;;;;;;11.50;8.67;;;10.90;99.90;;;;;;5109730;28;20509;-60
2022/03/09 09:23:04;;;;;;;8.37;7.57;;;11.00;99.90;;;;;;5109684;28;20898;-58
2022/03/09 09:25:40;;;;;;;9.73;8.20;;;11.20;99.90;;;;;;5097394;28;20488;-60
2022/03/09 09:28:07;;;;;;;11.57;7.50;;;11.60;99.90;;;;;;5116901;28;20459;-60
2022/03/09 09:30:34;;;;;;;10.73;8.30;;;11.40;99.90;;;;;;5106633;28;20893;-60
2022/03/09 09:33:04;;;;;;;8.10;7.30;;;11.40;99.90;;;;;;5109851;28;20459;-60
2022/03/09 09:35:31;;;;;;;9.67;8.60;;;11.50;99.90;;;;;;5098012;28;20518;-59
2022/03/09 09:38:06;;;;;;;8.20;7.40;;;11.40;99.90;;;;;;5109159;28;20892;-59
2022/03/09 09:40:35;;;;;;;8.73;7.83;;;11.40;99.90;;;;;;5101342;28;20487;-60
2022/03/09 09:43:10;;;;;;;9.87;8.83;;;11.50;99.90;;;;;;5118145;28;20779;-59
2022/03/09 09:45:38;;;;;;;8.87;7.97;;;11.50;99.90;;;;;;5118292;28;20490;-59
2022/03/09 09:48:08;;;;;;;8.10;7.30;;;11.20;99.90;;;;;;5116508;28;20801;-59
2022/03/09 09:50:42;;;;;;;9.30;7.93;;;11.40;99.90;;;;;;5118374;28;20464;-58
2022/03/09 09:53:11;;;;;;;11.63;8.63;;;11.50;99.90;;;;;;5117216;28;20532;-60
2022/03/09 09:55:41;;;;;;;7.77;7.07;;;11.70;99.90;;;;;;5117977;28;20478;-59
2022/03/09 09:58:09;;;;;;;9.30;8.33;;;11.80;99.90;;;;;;5117502;28;20463;-57
2022/03/09 10:00:39;;;;;;;8.80;8.00;;;11.90;99.90;;;;;;5117993;28;20455;-60
2022/03/09 10:03:06;;;;;;;9.60;7.83;;;12.10;99.90;;;;;;5110683;28;20467;-60
2022/03/09 10:05:37;;;;;;;9.40;8.37;;;12.30;99.90;;;;;;5098063;28;20488;-60
2022/03/09 10:08:20;;;;;;;15.53;8.87;;;12.30;99.90;;;;;;5105187;28;20467;-60
2022/03/09 10:10:58;;;;;;;12.23;9.50;;;12.70;99.90;;;;;;5117998;28;20800;-58
2022/03/09 10:13:27;;;;;;;10.03;9.13;;;12.60;99.90;;;;;;5105458;28;20464;-58
2022/03/09 10:16:18;;;;;;;11.40;9.27;;;12.60;99.90;;;;;;5099913;28;20457;-60
2022/03/09 10:18:51;;;;;;;10.17;9.17;;;12.70;99.90;;;;;;5096282;28;20806;-60
2022/03/09 10:21:28;;;;;;;10.50;8.93;;;12.70;99.90;;;;;;5099099;28;20877;-60
2022/03/09 10:24:03;;;;;;;9.27;8.27;;;13.00;99.90;;;;;;5102917;28;20462;-60
2022/03/09 10:26:49;;;;;;;8.93;8.03;;;13.10;99.90;;;;;;5109219;28;20483;-59
2022/03/09 10:29:20;;;;;;;13.50;9.47;;;13.40;99.90;;;;;;5115783;28;20561;-60
2022/03/09 10:31:49;;;;;;;9.97;8.50;;;13.40;99.90;;;;;;5116870;28;20723;-59
2022/03/09 10:34:20;;;;;;;9.73;8.73;;;13.60;99.90;;;;;;5097996;28;20464;-60
2022/03/09 10:36:56;;;;;;;9.57;8.57;;;13.60;99.90;;;;;;5096727;28;20870;-58
2022/03/09 10:39:25;;;;;;;10.33;8.83;;;13.80;99.90;;;;;;5098095;28;20537;-60
2022/03/09 10:41:53;;;;;;;10.37;8.97;;;14.30;99.90;;;;;;5104377;28;20537;-60
2022/03/09 10:44:41;;;;;;;11.37;9.03;;;14.30;99.90;;;;;;5105723;28;20475;-60
2022/03/09 10:47:08;;;;;;;20.67;10.20;;;14.40;99.90;;;;;;5102368;28;20487;-61
2022/03/09 10:49:47;;;;;;;11.83;9.00;;;13.90;99.90;;;;;;5116789;28;20528;-58
2022/03/09 10:52:16;;;;;;;8.97;8.07;;;14.10;99.90;;;;;;5118195;28;20512;-60
2022/03/09 10:54:43;;;;;;;10.10;9.07;;;14.30;99.90;;;;;;5105014;28;20473;-59
2022/03/09 10:57:17;;;;;;;9.97;9.00;;;14.70;99.90;;;;;;5100804;28;20464;-60
2022/03/09 10:59:47;;;;;;;14.70;9.50;;;14.90;99.90;;;;;;5111738;28;20774;-58
2022/03/09 11:02:20;;;;;;;10.97;9.97;;;14.70;99.90;;;;;;5117831;28;20464;-58
2022/03/09 11:05:09;;;;;;;11.23;8.93;;;14.90;99.90;;;;;;5110882;28;20567;-61
2022/03/09 11:07:41;;;;;;;11.97;9.40;;;15.10;99.90;;;;;;5099709;28;20492;-60
2022/03/09 11:10:12;;;;;;;9.63;8.70;;;15.50;99.90;;;;;;5095948;28;20483;-60
2022/03/09 11:12:43;;;;;;;9.13;8.23;;;15.50;99.90;;;;;;5108292;28;20467;-56
2022/03/09 11:15:12;;;;;;;11.70;8.43;;;15.40;99.90;;;;;;5114013;28;20459;-59
2022/03/09 11:17:48;;;;;;;9.73;8.63;;;15.40;99.90;;;;;;5105108;28;20468;-59
2022/03/09 11:20:16;;;;;;;9.80;8.80;;;15.50;99.90;;;;;;5105137;28;20491;-60
2022/03/09 11:22:43;;;;;;;9.93;8.60;;;15.80;99.90;;;;;;5119796;28;20557;-58
2022/03/09 11:25:11;;;;;;;9.57;8.67;;;16.10;99.90;;;;;;5120945;28;20876;-60
2022/03/09 11:27:47;;;;;;;10.40;9.50;;;16.40;99.90;;;;;;5115370;28;20555;-61
2022/03/09 11:30:28;;;;;;;9.60;8.70;;;17.10;99.90;;;;;;5111413;28;20470;-58
2022/03/09 11:32:57;;;;;;;9.83;8.90;;;17.10;99.90;;;;;;5119279;28;20876;-60
2022/03/09 11:35:38;;;;;;;10.13;9.23;;;16.90;99.90;;;;;;5102547;28;20547;-60
2022/03/09 11:38:41;;;;;;;11.23;10.10;;;16.70;99.90;;;;;;5099682;28;20517;-59
2022/03/09 11:41:25;;;;;;;12.23;9.60;;;16.60;99.90;;;;;;5099512;28;20815;-58
2022/03/09 11:44:29;;;;;;;11.13;8.83;;;16.80;99.90;;;;;;5104835;28;20459;-60
2022/03/09 11:47:07;;;;;;;10.07;9.07;;;16.70;99.90;;;;;;5108338;28;20960;-60
2022/03/09 11:49:56;;;;;;;11.07;10.07;;;16.50;99.90;;;;;;5099245;28;20901;-60
2022/03/09 11:52:27;;;;;;;10.70;9.70;;;16.60;99.90;;;;;;5099452;28;20946;-60
2022/03/09 11:55:00;;;;;;;10.23;9.23;;;16.50;99.90;;;;;;5116167;28;20463;-60
2022/03/09 11:58:05;;;;;;;10.37;9.37;;;16.60;99.90;;;;;;5118897;28;20920;-59
2022/03/09 12:00:39;;;;;;;12.33;9.80;;;16.80;99.90;;;;;;5118674;28;20825;-60
2022/03/09 12:03:06;;;;;;;11.43;10.40;;;17.00;99.90;;;;;;5107236;28;20459;-60
2022/03/09 12:05:42;;;;;;;11.23;10.23;;;16.90;99.90;;;;;;5108150;28;20464;-60
2022/03/09 12:08:10;;;;;;;10.43;9.53;;;16.80;99.90;;;;;;5111368;28;20901;-60
2022/03/09 12:10:46;;;;;;;14.20;12.80;;;16.90;99.90;;;;;;5104067;28;20461;-60
2022/03/09 12:13:38;;;;;;;11.03;10.03;;;17.20;99.90;;;;;;5102380;28;20466;-60
2022/03/09 12:16:15;;;;;;;11.43;10.37;;;17.80;99.90;;;;;;5118947;28;20478;-61
2022/03/09 12:18:51;;;;;;;12.97;10.73;;;17.50;99.90;;;;;;5117045;28;20498;-59
2022/03/09 12:22:15;;;;;;;10.83;9.83;;;17.10;99.90;;;;;;5109649;28;20901;-60
2022/03/09 12:24:42;;;;;;;11.70;10.70;;;17.50;99.90;;;;;;5053341;28;20895;-59
2022/03/09 12:27:28;;;;;;;10.60;9.60;;;17.90;99.90;;;;;;5055577;28;20497;-59
2022/03/09 12:29:55;;;;;;;11.87;10.73;;;17.80;99.90;;;;;;5088326;28;20497;-60
2022/03/09 12:32:31;;;;;;;11.80;10.70;;;17.30;99.90;;;;;;5118669;28;20513;-59
2022/03/09 12:35:05;;;;;;;10.63;9.53;;;17.10;99.90;;;;;;5118662;28;20527;-60
2022/03/09 12:37:35;;;;;;;12.80;11.47;;;17.40;99.90;;;;;;5098401;28;20457;-60
2022/03/09 12:40:08;;;;;;;10.47;9.47;;;17.80;99.90;;;;;;5099652;28;20517;-60
2022/03/09 12:42:37;;;;;;;11.23;10.23;;;18.00;99.90;;;;;;5108582;28;21022;-59
2022/03/09 12:45:07;;;;;;;11.03;9.93;;;18.00;99.90;;;;;;5101534;28;20467;-59
2022/03/09 12:47:36;;;;;;;11.50;10.50;;;17.70;99.90;;;;;;5111720;28;20497;-57
2022/03/09 12:50:13;;;;;;;11.60;10.50;;;17.40;99.90;;;;;;5107854;28;20463;-60
2022/03/09 12:52:44;;;;;;;11.67;10.47;;;17.40;99.90;;;;;;5116391;28;20493;-60
2022/03/09 12:55:12;;;;;;;11.90;10.80;;;17.60;99.90;;;;;;5117325;28;20467;-60
2022/03/09 12:57:39;;;;;;;10.80;9.77;;;17.70;99.90;;;;;;5113023;28;20513;-60
2022/03/09 13:00:08;;;;;;;12.33;11.10;;;17.60;99.90;;;;;;5112265;28;20479;-60
2022/03/09 13:02:45;;;;;;;11.43;10.43;;;17.60;99.90;;;;;;5116488;28;20463;-60
2022/03/09 13:05:21;;;;;;;11.10;10.00;;;17.30;99.90;;;;;;5110440;28;20498;-60
2022/03/09 13:07:58;;;;;;;10.07;9.20;;;17.40;99.90;;;;;;5117253;28;20540;-60
2022/03/09 13:10:33;;;;;;;10.50;9.50;;;17.70;99.90;;;;;;5114133;28;20779;-60
2022/03/09 13:13:06;;;;;;;13.60;11.47;;;17.80;99.90;;;;;;5111663;28;20517;-60